createdAt,value
2019-03-30T00:01:01.862Z,99.90
2019-03-30T00:03:35.648Z,99.90
2019-03-30T00:06:09.008Z,99.90
2019-03-30T00:08:43.808Z,99.90
2019-03-30T00:11:17.329Z,99.90
2019-03-30T00:13:51.108Z,99.90
2019-03-30T00:16:25.495Z,99.90
2019-03-30T00:18:58.857Z,99.90
2019-03-30T00:21:33.337Z,99.90
2019-03-30T00:24:06.807Z,99.90
2019-03-30T00:26:40.138Z,99.90
2019-03-30T00:29:13.737Z,99.90
2019-03-30T00:31:47.261Z,99.90
2019-03-30T00:34:21.160Z,99.90
2019-03-30T00:36:54.622Z,99.90
2019-03-30T00:39:28.343Z,99.90
2019-03-30T00:42:01.712Z,99.90
2019-03-30T00:44:35.842Z,99.90
2019-03-30T00:47:09.253Z,99.90
2019-03-30T00:49:49.169Z,99.90
2019-03-30T00:52:18.295Z,99.90
2019-03-30T00:54:51.663Z,99.90
2019-03-30T00:57:25.047Z,99.90
2019-03-30T00:59:58.413Z,99.90
2019-03-30T01:02:32.090Z,99.90
2019-03-30T01:05:07.695Z,99.90
2019-03-30T01:07:41.441Z,99.90
2019-03-30T01:10:15.388Z,99.90
2019-03-30T01:12:49.339Z,99.90
2019-03-30T01:15:23.089Z,99.90
2019-03-30T01:17:57.206Z,99.90
2019-03-30T01:20:32.457Z,99.90
2019-03-30T01:23:06.144Z,99.90
2019-03-30T01:25:40.694Z,99.90
2019-03-30T01:28:15.752Z,99.90
2019-03-30T01:30:49.525Z,99.90
2019-03-30T01:33:24.091Z,99.90
2019-03-30T01:35:57.507Z,99.90
2019-03-30T01:38:31.646Z,99.90
2019-03-30T01:41:05.462Z,99.90
2019-03-30T01:43:40.146Z,99.90
2019-03-30T01:46:14.393Z,99.90
2019-03-30T01:48:48.994Z,99.90
2019-03-30T01:51:22.999Z,99.90
2019-03-30T01:53:57.296Z,99.90
2019-03-30T01:56:30.607Z,99.90
2019-03-30T01:59:05.096Z,99.90
2019-03-30T02:01:39.994Z,99.90
2019-03-30T02:04:13.509Z,99.90
2019-03-30T02:06:49.400Z,99.90
2019-03-30T02:09:24.020Z,99.90
2019-03-30T02:11:57.561Z,99.90
2019-03-30T02:14:31.259Z,99.90
2019-03-30T02:17:04.746Z,99.90
2019-03-30T02:19:38.211Z,99.90
2019-03-30T02:22:12.364Z,99.90
2019-03-30T02:24:45.729Z,99.90
2019-03-30T02:27:19.198Z,99.90
2019-03-30T02:29:52.598Z,99.90
2019-03-30T02:32:26.816Z,99.90
2019-03-30T02:35:01.315Z,99.90
2019-03-30T02:37:34.900Z,99.90
2019-03-30T02:40:08.636Z,99.90
2019-03-30T02:42:42.269Z,99.90
2019-03-30T02:45:15.914Z,99.90
2019-03-30T02:47:50.205Z,99.90
2019-03-30T02:50:27.363Z,99.90
2019-03-30T02:53:01.807Z,99.90
2019-03-30T02:55:36.101Z,99.90
2019-03-30T02:58:10.261Z,99.90
2019-03-30T03:00:44.795Z,99.90
2019-03-30T03:03:19.794Z,99.90
2019-03-30T03:05:55.123Z,99.90
2019-03-30T03:08:29.160Z,99.90
2019-03-30T03:11:03.441Z,99.90
2019-03-30T03:13:37.996Z,99.90
2019-03-30T03:16:14.492Z,99.90
2019-03-30T03:18:48.163Z,99.90
2019-03-30T03:21:21.819Z,99.90
2019-03-30T03:23:55.492Z,99.90
2019-03-30T03:26:31.997Z,99.90
2019-03-30T03:29:05.795Z,99.90
2019-03-30T03:31:39.493Z,99.90
2019-03-30T03:34:13.096Z,99.90
2019-03-30T03:36:47.259Z,99.90
2019-03-30T03:39:21.912Z,99.90
2019-03-30T03:41:56.836Z,99.90
2019-03-30T03:44:32.141Z,99.90
2019-03-30T03:47:07.997Z,99.90
2019-03-30T03:49:41.992Z,99.90
2019-03-30T03:52:15.441Z,99.90
2019-03-30T03:54:48.845Z,99.90
2019-03-30T03:57:26.692Z,99.90
2019-03-30T04:00:02.998Z,99.90
2019-03-30T04:02:39.252Z,99.90
2019-03-30T04:05:12.797Z,99.90
2019-03-30T04:07:50.013Z,99.90
2019-03-30T04:10:27.779Z,99.90
2019-03-30T04:13:06.939Z,99.90
2019-03-30T04:15:39.543Z,99.90
2019-03-30T04:18:12.920Z,99.90
2019-03-30T04:20:46.445Z,99.90
2019-03-30T04:23:20.040Z,99.90
2019-03-30T04:25:54.819Z,99.90
2019-03-30T04:28:28.360Z,99.90
2019-03-30T04:31:03.078Z,99.90
2019-03-30T04:33:37.908Z,99.90
2019-03-30T04:36:11.297Z,99.90
2019-03-30T04:38:44.761Z,99.90
2019-03-30T04:41:18.287Z,99.90
2019-03-30T04:43:51.721Z,99.90
2019-03-30T04:46:25.004Z,99.90
2019-03-30T04:49:00.251Z,99.90
2019-03-30T04:51:33.642Z,99.90
2019-03-30T04:54:07.316Z,99.90
2019-03-30T04:56:42.896Z,99.90
2019-03-30T04:59:17.101Z,99.90
2019-03-30T05:01:50.411Z,99.90
2019-03-30T05:04:28.495Z,99.90
2019-03-30T05:07:03.513Z,99.90
2019-03-30T05:09:38.887Z,99.90
2019-03-30T05:12:12.442Z,99.90
2019-03-30T05:14:46.118Z,99.90
2019-03-30T05:17:21.007Z,99.90
2019-03-30T05:19:55.940Z,99.90
2019-03-30T05:22:31.061Z,99.90
2019-03-30T05:25:05.589Z,99.90
2019-03-30T05:27:39.839Z,99.90
2019-03-30T05:30:13.701Z,99.90
2019-03-30T05:32:47.161Z,99.90
2019-03-30T05:35:20.666Z,99.90
2019-03-30T05:37:55.246Z,99.90
2019-03-30T05:40:28.841Z,99.90
2019-03-30T05:43:04.642Z,99.90
2019-03-30T05:45:38.367Z,99.90
2019-03-30T05:48:11.795Z,99.90
2019-03-30T05:50:45.139Z,99.90
2019-03-30T05:53:18.510Z,99.90
2019-03-30T05:55:53.137Z,99.90
2019-03-30T05:58:26.892Z,99.90
2019-03-30T06:01:00.291Z,99.90
2019-03-30T06:03:35.534Z,99.90
2019-03-30T06:06:09.539Z,99.90
2019-03-30T06:08:43.782Z,99.90
2019-03-30T06:11:17.101Z,99.90
2019-03-30T06:13:53.206Z,99.90
2019-03-30T06:16:26.722Z,99.90
2019-03-30T06:19:01.188Z,99.90
2019-03-30T06:21:34.959Z,99.90
2019-03-30T06:24:09.451Z,99.90
2019-03-30T06:26:42.858Z,99.90
2019-03-30T06:29:16.799Z,99.90
2019-03-30T06:31:50.706Z,99.90
2019-03-30T06:34:24.329Z,99.90
2019-03-30T06:36:58.213Z,99.90
2019-03-30T06:39:33.043Z,99.90
2019-03-30T06:42:09.185Z,99.90
2019-03-30T06:44:42.850Z,99.90
2019-03-30T06:47:16.490Z,99.90
2019-03-30T06:49:49.839Z,99.90
2019-03-30T06:52:23.710Z,99.90
2019-03-30T06:55:00.037Z,99.90
2019-03-30T06:57:35.744Z,99.90
2019-03-30T07:00:11.185Z,99.90
2019-03-30T07:02:44.890Z,99.90
2019-03-30T07:05:19.792Z,99.90
2019-03-30T07:07:54.442Z,99.90
2019-03-30T07:10:29.319Z,99.90
2019-03-30T07:13:05.195Z,99.90
2019-03-30T07:15:47.796Z,99.90
2019-03-30T07:18:22.957Z,99.90
2019-03-30T07:20:56.303Z,99.90
2019-03-30T07:23:29.960Z,99.90
2019-03-30T07:26:03.548Z,99.90
2019-03-30T07:28:37.450Z,99.90
2019-03-30T07:31:13.939Z,99.90
2019-03-30T07:33:50.006Z,99.90
2019-03-30T07:36:25.994Z,99.90
2019-03-30T07:39:00.858Z,99.90
2019-03-30T07:41:35.992Z,99.90
2019-03-30T07:44:09.589Z,99.90
2019-03-30T07:46:43.405Z,99.90
2019-03-30T07:49:16.993Z,99.90
2019-03-30T07:51:51.693Z,99.90
2019-03-30T07:54:27.741Z,99.90
2019-03-30T07:57:07.084Z,99.90
2019-03-30T07:59:36.992Z,99.90
2019-03-30T08:02:10.471Z,99.90
2019-03-30T08:04:45.458Z,99.90
2019-03-30T08:07:19.118Z,99.90
2019-03-30T08:09:54.550Z,99.90
2019-03-30T08:12:28.794Z,99.90
2019-03-30T08:15:02.755Z,99.90
2019-03-30T08:17:36.547Z,99.90
2019-03-30T08:20:12.046Z,99.90
2019-03-30T08:22:47.442Z,99.90
2019-03-30T08:25:21.042Z,99.90
2019-03-30T08:27:55.694Z,99.90
2019-03-30T08:30:29.538Z,99.90
2019-03-30T08:33:04.291Z,99.90
2019-03-30T08:35:37.784Z,99.90
2019-03-30T08:38:14.188Z,99.90
2019-03-30T08:40:47.992Z,99.90
2019-03-30T08:43:22.542Z,99.90
2019-03-30T08:45:58.896Z,99.90
2019-03-30T08:48:32.638Z,99.90
2019-03-30T08:51:07.001Z,99.90
2019-03-30T08:53:53.737Z,99.90
2019-03-30T08:56:15.787Z,99.90
2019-03-30T08:58:49.522Z,99.90
2019-03-30T09:01:22.959Z,99.90
2019-03-30T09:03:56.749Z,99.90
2019-03-30T09:06:30.012Z,99.90
2019-03-30T09:09:03.994Z,99.90
2019-03-30T09:11:37.646Z,99.90
2019-03-30T09:14:12.808Z,99.90
2019-03-30T09:16:47.039Z,99.90
2019-03-30T09:19:23.313Z,99.90
2019-03-30T09:21:56.918Z,99.90
2019-03-30T09:24:30.250Z,99.90
2019-03-30T09:27:03.676Z,99.90
2019-03-30T09:29:37.054Z,99.90
2019-03-30T09:32:14.678Z,99.90
2019-03-30T09:34:45.375Z,99.90
2019-03-30T09:37:18.831Z,99.90
2019-03-30T09:39:52.302Z,99.90
2019-03-30T09:42:25.687Z,99.90
2019-03-30T09:44:59.102Z,99.90
2019-03-30T09:47:32.503Z,99.90
2019-03-30T09:50:08.874Z,99.90
2019-03-30T09:52:43.302Z,99.90
2019-03-30T09:55:16.764Z,99.90
2019-03-30T09:57:50.157Z,99.90
2019-03-30T10:00:23.536Z,99.90
2019-03-30T10:02:56.950Z,99.90
2019-03-30T10:05:30.294Z,99.90
2019-03-30T10:08:03.733Z,99.90
2019-03-30T10:10:37.112Z,99.90
2019-03-30T10:13:11.514Z,99.90
2019-03-30T10:15:44.878Z,99.90
2019-03-30T10:18:18.213Z,99.90
2019-03-30T10:20:51.598Z,99.90
2019-03-30T10:23:24.894Z,99.90
2019-03-30T10:25:58.238Z,99.90
2019-03-30T10:28:31.567Z,99.90
2019-03-30T10:31:04.934Z,99.90
2019-03-30T10:33:38.342Z,99.90
2019-03-30T10:36:12.707Z,99.90
2019-03-30T10:38:46.113Z,99.90
2019-03-30T10:41:19.481Z,99.90
2019-03-30T10:43:52.877Z,99.90
2019-03-30T10:46:27.420Z,99.90
2019-03-30T10:49:00.872Z,99.90
2019-03-30T10:51:34.249Z,99.90
2019-03-30T10:54:15.414Z,99.90
2019-03-30T10:56:48.789Z,99.90
2019-03-30T10:59:22.199Z,99.90
2019-03-30T11:01:55.530Z,99.90
2019-03-30T11:04:28.848Z,99.90
2019-03-30T11:07:02.160Z,99.90
2019-03-30T11:09:35.609Z,99.90
2019-03-30T11:12:09.513Z,99.90
2019-03-30T11:14:44.610Z,99.90
2019-03-30T11:17:19.487Z,99.90
2019-03-30T11:19:52.981Z,99.90
2019-03-30T11:22:27.538Z,99.90
2019-03-30T11:25:07.687Z,99.90
2019-03-30T11:27:36.082Z,99.90
2019-03-30T11:30:10.030Z,99.90
2019-03-30T11:32:44.407Z,99.90
2019-03-30T11:35:17.807Z,99.90
2019-03-30T11:37:51.179Z,99.90
2019-03-30T11:40:24.616Z,99.90
2019-03-30T11:42:58.026Z,99.90
2019-03-30T11:45:31.522Z,99.90
2019-03-30T11:48:08.067Z,99.90
2019-03-30T11:50:41.520Z,99.60
2019-03-30T11:53:14.929Z,99.90
2019-03-30T11:55:50.118Z,98.80
2019-03-30T11:58:24.515Z,98.50
2019-03-30T12:00:57.936Z,98.30
2019-03-30T12:03:31.260Z,97.50
2019-03-30T12:06:04.706Z,98.10
2019-03-30T12:08:38.298Z,97.70
2019-03-30T12:11:11.737Z,97.80
2019-03-30T12:13:45.268Z,97.20
2019-03-30T12:16:19.187Z,96.60
2019-03-30T12:18:56.117Z,97.10
2019-03-30T12:21:30.059Z,96.80
2019-03-30T12:24:04.624Z,96.70
2019-03-30T12:26:38.501Z,97.10
2019-03-30T12:29:12.420Z,96.90
2019-03-30T12:31:45.849Z,97.10
2019-03-30T12:34:19.378Z,96.70
2019-03-30T12:36:55.609Z,95.70
2019-03-30T12:39:29.807Z,95.80
2019-03-30T12:42:03.343Z,95.80
2019-03-30T12:44:36.751Z,95.70
2019-03-30T12:47:10.608Z,94.10
2019-03-30T12:49:45.418Z,94.10
2019-03-30T12:52:19.802Z,95.10
2019-03-30T12:54:53.159Z,93.60
2019-03-30T12:57:26.529Z,94.10
2019-03-30T13:00:01.611Z,94.60
2019-03-30T13:02:35.130Z,94.00
2019-03-30T13:05:09.041Z,93.50
2019-03-30T13:07:42.438Z,94.30
2019-03-30T13:10:16.689Z,93.30
2019-03-30T13:12:50.161Z,93.70
2019-03-30T13:15:23.557Z,93.60
2019-03-30T13:17:56.989Z,92.80
2019-03-30T13:20:30.680Z,92.50
2019-03-30T13:23:04.040Z,92.30
2019-03-30T13:25:37.460Z,91.70
2019-03-30T13:28:10.947Z,91.30
2019-03-30T13:30:46.061Z,91.60
2019-03-30T13:33:19.411Z,90.00
2019-03-30T13:35:52.842Z,91.50
2019-03-30T13:38:27.240Z,90.90
2019-03-30T13:41:00.728Z,90.20
2019-03-30T13:43:34.268Z,91.00
2019-03-30T13:46:07.818Z,90.60
2019-03-30T13:48:41.197Z,90.30
2019-03-30T13:51:14.643Z,91.30
2019-03-30T13:53:48.033Z,90.80
2019-03-30T13:56:27.375Z,90.10
2019-03-30T13:59:00.840Z,91.00
2019-03-30T14:01:34.240Z,91.40
2019-03-30T14:04:08.811Z,91.30
2019-03-30T14:06:43.917Z,91.40
2019-03-30T14:09:22.122Z,88.30
2019-03-30T14:11:56.791Z,90.90
2019-03-30T14:14:30.222Z,91.00
2019-03-30T14:17:05.303Z,91.70
2019-03-30T14:19:39.878Z,91.80
2019-03-30T14:22:13.303Z,91.30
2019-03-30T14:24:46.678Z,91.80
2019-03-30T14:27:20.102Z,91.60
2019-03-30T14:29:54.511Z,91.80
2019-03-30T14:32:29.025Z,91.50
2019-03-30T14:35:02.541Z,91.50
2019-03-30T14:37:36.068Z,91.80
2019-03-30T14:40:12.663Z,90.60
2019-03-30T14:42:46.068Z,91.60
2019-03-30T14:45:19.541Z,88.80
2019-03-30T14:47:52.977Z,88.10
2019-03-30T14:50:26.512Z,89.20
2019-03-30T14:52:59.917Z,87.70
2019-03-30T14:55:33.333Z,88.40
2019-03-30T14:58:06.845Z,85.70
2019-03-30T15:00:41.809Z,88.20
2019-03-30T15:03:15.348Z,87.10
2019-03-30T15:05:48.742Z,88.20
2019-03-30T15:08:22.251Z,88.60
2019-03-30T15:10:55.647Z,87.70
2019-03-30T15:13:34.021Z,88.90
2019-03-30T15:16:07.521Z,87.70
2019-03-30T15:18:40.969Z,90.30
2019-03-30T15:21:18.808Z,90.70
2019-03-30T15:23:52.223Z,89.40
2019-03-30T15:26:26.772Z,90.70
2019-03-30T15:29:00.178Z,90.60
2019-03-30T15:31:33.574Z,90.10
2019-03-30T15:34:07.119Z,90.80
2019-03-30T15:36:40.449Z,89.90
2019-03-30T15:39:13.913Z,90.10
2019-03-30T15:41:47.389Z,90.60
2019-03-30T15:44:23.723Z,90.70
2019-03-30T15:46:57.100Z,91.10
2019-03-30T15:49:31.579Z,91.30
2019-03-30T15:52:13.893Z,91.80
2019-03-30T15:54:40.092Z,92.00
2019-03-30T15:57:14.547Z,91.40
2019-03-30T15:59:47.990Z,92.10
2019-03-30T16:02:21.405Z,92.10
2019-03-30T16:04:54.814Z,93.00
2019-03-30T16:07:28.280Z,92.60
2019-03-30T16:10:02.700Z,93.30
2019-03-30T16:12:37.115Z,94.80
2019-03-30T16:15:10.820Z,95.60
2019-03-30T16:17:44.331Z,96.20
2019-03-30T16:20:17.820Z,96.80
2019-03-30T16:22:51.158Z,97.20
2019-03-30T16:25:24.575Z,97.80
2019-03-30T16:27:57.878Z,98.00
2019-03-30T16:30:31.382Z,98.80
2019-03-30T16:33:04.792Z,99.00
2019-03-30T16:35:38.195Z,99.60
2019-03-30T16:38:11.558Z,99.90
2019-03-30T16:40:45.167Z,99.90
2019-03-30T16:43:18.539Z,99.90
2019-03-30T16:45:51.936Z,99.90
2019-03-30T16:48:25.301Z,99.90
2019-03-30T16:50:58.652Z,99.90
2019-03-30T16:53:32.088Z,99.90
2019-03-30T16:56:08.073Z,99.90
2019-03-30T16:58:44.516Z,99.90
2019-03-30T17:01:17.951Z,99.90
2019-03-30T17:04:03.611Z,99.90
2019-03-30T17:06:27.522Z,99.90
2019-03-30T17:09:00.918Z,99.90
2019-03-30T17:11:36.401Z,99.90
2019-03-30T17:14:09.824Z,99.90
2019-03-30T17:16:43.230Z,99.90
2019-03-30T17:19:16.705Z,99.90
2019-03-30T17:21:50.211Z,99.90
2019-03-30T17:24:28.058Z,99.90
2019-03-30T17:27:02.439Z,99.90
2019-03-30T17:29:35.821Z,99.90
2019-03-30T17:32:09.240Z,99.90
2019-03-30T17:34:43.826Z,99.90
2019-03-30T17:37:21.495Z,99.90
2019-03-30T17:39:56.130Z,99.90
2019-03-30T17:42:29.532Z,99.90
2019-03-30T17:45:02.944Z,99.90
2019-03-30T17:47:36.331Z,99.90
2019-03-30T17:50:11.587Z,99.90
2019-03-30T17:52:45.010Z,99.90
2019-03-30T17:55:32.717Z,99.90
2019-03-30T17:57:54.594Z,99.90
2019-03-30T18:00:27.990Z,99.90
2019-03-30T18:03:01.484Z,99.90
2019-03-30T18:05:34.836Z,99.90
2019-03-30T18:08:08.299Z,99.90
2019-03-30T18:10:41.677Z,99.90
2019-03-30T18:13:16.274Z,99.90
2019-03-30T18:15:49.798Z,99.90
2019-03-30T18:18:25.350Z,99.90
2019-03-30T18:20:58.753Z,99.90
2019-03-30T18:23:32.172Z,99.90
2019-03-30T18:26:05.558Z,99.90
2019-03-30T18:28:38.979Z,99.90
2019-03-30T18:31:12.460Z,99.90
2019-03-30T18:33:47.268Z,99.90
2019-03-30T18:36:21.583Z,99.90
2019-03-30T18:39:09.380Z,99.90
2019-03-30T18:41:35.928Z,99.90
2019-03-30T18:44:10.200Z,99.90
2019-03-30T18:46:45.336Z,99.90
2019-03-30T18:49:21.392Z,99.90
2019-03-30T18:51:57.301Z,99.90
2019-03-30T18:54:31.908Z,99.90
2019-03-30T18:57:06.254Z,99.90
2019-03-30T18:59:40.553Z,99.90
2019-03-30T19:02:19.080Z,99.90
2019-03-30T19:04:56.641Z,99.90
2019-03-30T19:07:35.035Z,99.90
2019-03-30T19:10:11.685Z,99.90
2019-03-30T19:12:47.233Z,99.90
2019-03-30T19:15:22.986Z,99.90
2019-03-30T19:17:59.888Z,99.90
2019-03-30T19:20:37.037Z,99.90
2019-03-30T19:23:16.320Z,99.90
2019-03-30T19:25:53.837Z,99.90
2019-03-30T19:28:30.757Z,99.90
2019-03-30T19:31:07.582Z,99.90
2019-03-30T19:33:45.631Z,99.90
2019-03-30T19:36:22.086Z,99.90
2019-03-30T19:38:58.190Z,99.90
2019-03-30T19:41:37.139Z,99.90
2019-03-30T19:44:13.741Z,99.90
2019-03-30T19:46:50.435Z,99.90
2019-03-30T19:49:26.939Z,99.90
2019-03-30T19:52:05.821Z,99.90
2019-03-30T19:54:43.584Z,99.90
2019-03-30T19:57:20.087Z,99.90
2019-03-30T19:59:55.938Z,99.90
2019-03-30T20:02:32.287Z,99.90
2019-03-30T20:05:10.236Z,99.90
2019-03-30T20:07:45.965Z,99.90
2019-03-30T20:10:22.388Z,99.90
2019-03-30T20:12:58.714Z,99.90
2019-03-30T20:15:34.762Z,99.90
2019-03-30T20:18:10.966Z,99.90
2019-03-30T20:20:48.213Z,99.90
2019-03-30T20:23:25.652Z,99.90
2019-03-30T20:26:03.663Z,99.90
2019-03-30T20:28:39.217Z,99.90
2019-03-30T20:31:16.946Z,99.90
2019-03-30T20:33:54.322Z,99.90
2019-03-30T20:36:35.230Z,99.90
2019-03-30T20:39:11.288Z,99.90
2019-03-30T20:41:45.245Z,99.90
2019-03-30T20:44:19.605Z,99.90
2019-03-30T20:46:53.190Z,99.90
2019-03-30T20:49:26.920Z,99.90
2019-03-30T20:52:00.964Z,99.90
2019-03-30T20:54:36.158Z,99.90
2019-03-30T20:57:09.869Z,99.90
2019-03-30T20:59:45.781Z,99.90
2019-03-30T21:02:19.462Z,99.90
2019-03-30T21:04:52.869Z,99.90
2019-03-30T21:07:27.565Z,99.90
2019-03-30T21:10:02.150Z,99.90
2019-03-30T21:12:39.078Z,99.90
2019-03-30T21:15:13.925Z,99.90
2019-03-30T21:17:49.494Z,99.90
2019-03-30T21:20:23.746Z,99.90
2019-03-30T21:23:01.697Z,99.90
2019-03-30T21:25:40.289Z,99.90
2019-03-30T21:28:16.496Z,99.90
2019-03-30T21:30:52.848Z,99.90
2019-03-30T21:33:31.884Z,99.90
2019-03-30T21:36:08.074Z,99.90
2019-03-30T21:38:42.176Z,99.90
2019-03-30T21:41:19.419Z,99.90
2019-03-30T21:43:54.023Z,99.90
2019-03-30T21:46:29.199Z,99.90
2019-03-30T21:49:03.263Z,99.90
2019-03-30T21:51:37.127Z,99.90
2019-03-30T21:54:11.845Z,99.90
2019-03-30T21:56:47.310Z,99.90
2019-03-30T21:59:26.786Z,99.90
2019-03-30T22:02:01.118Z,99.90
2019-03-30T22:04:37.123Z,99.90
2019-03-30T22:07:12.573Z,99.90
2019-03-30T22:09:48.301Z,99.90
2019-03-30T22:12:28.579Z,99.90
2019-03-30T22:15:05.910Z,99.90
2019-03-30T22:17:40.611Z,99.90
2019-03-30T22:20:21.100Z,99.90
2019-03-30T22:22:58.868Z,99.90
2019-03-30T22:25:36.918Z,99.90
2019-03-30T22:28:14.263Z,99.90
2019-03-30T22:30:48.237Z,99.90
2019-03-30T22:33:22.789Z,99.90
2019-03-30T22:35:56.468Z,99.90
2019-03-30T22:38:29.789Z,99.90
2019-03-30T22:41:03.266Z,99.90
2019-03-30T22:43:37.891Z,99.90
2019-03-30T22:46:12.101Z,99.90
2019-03-30T22:48:47.084Z,99.90
2019-03-30T22:51:20.518Z,99.90
2019-03-30T22:53:54.966Z,99.90
2019-03-30T22:56:29.192Z,99.90
2019-03-30T22:59:02.976Z,99.90
2019-03-30T23:01:36.331Z,99.90
2019-03-30T23:04:09.694Z,99.90
2019-03-30T23:06:43.042Z,99.90
2019-03-30T23:09:16.429Z,99.90
2019-03-30T23:11:49.725Z,99.90
2019-03-30T23:14:46.992Z,99.90
2019-03-30T23:17:20.294Z,99.90
2019-03-30T23:19:53.799Z,99.90
2019-03-30T23:22:27.162Z,99.90
2019-03-30T23:25:00.567Z,99.90
2019-03-30T23:27:34.122Z,99.90
2019-03-30T23:30:09.320Z,99.90
2019-03-30T23:32:42.771Z,99.90
2019-03-30T23:35:16.166Z,99.90
2019-03-30T23:37:49.550Z,99.90
2019-03-30T23:40:22.941Z,99.90
2019-03-30T23:43:01.395Z,99.90
2019-03-30T23:45:34.788Z,99.90
2019-03-30T23:48:08.150Z,99.90
2019-03-30T23:50:41.575Z,99.90
2019-03-30T23:53:14.944Z,99.90
2019-03-30T23:55:48.331Z,99.90
2019-03-30T23:58:21.683Z,99.90
